• Join FlightAware (Why Join?)
  • Login
  • US Flag 
08:16AM EDT


 

Airport Tracker/Info


-or-


 

Live Flight TrackerFlight Track Log ✈ CDG4711 ✈ 27-Apr-2014 ✈ ZSWY / WUS - ZGGG / CAN

Flight Track Log - Related Links

Times and Time Zones

All times are in EDT time to prevent confusion due to time zone crossing. See the CDG4711 flight status page for this flight to view local times or setup timezone preferences in your user account.

Time Position Orientation Groundspeed Altitude Reporting Facility
EDT Latitude Longitude Course Direction KTS MPH feet Rate Location/Type
10:18PM 27.2984 117.5387 226° Southwest  Level Estimated
10:19PM 27.2479 117.4811 225° Southwest  Level Estimated
10:20PM 27.1954 117.4214 225° Southwest  Level Estimated
10:21PM 27.1430 117.3618 225° Southwest  Level Estimated
10:22PM 27.0905 117.3023 225° Southwest  Level Estimated
10:23PM 27.0379 117.2427 225° Southwest  Level Estimated
10:24PM 26.9854 117.1833 225° Southwest  Level Estimated
10:25PM 26.9328 117.1239 225° Southwest  Level Estimated
10:26PM 26.8802 117.0646 225° Southwest  Level Estimated
10:27PM 26.8276 117.0053 225° Southwest  Level Estimated
10:28PM 26.7750 116.9460 225° Southwest  Level Estimated
10:29PM 26.7223 116.8869 225° Southwest  Level Estimated
10:30PM 26.6696 116.8277 225° Southwest  Level Estimated
10:31PM 26.6169 116.7687 225° Southwest  Level Estimated
10:32PM 26.5641 116.7097 225° Southwest  Level Estimated
10:33PM 26.5114 116.6507 225° Southwest  Level Estimated
10:34PM 26.4586 116.5918 225° Southwest  Level Estimated
10:35PM 26.4058 116.5329 225° Southwest  Level Estimated
10:36PM 26.3529 116.4742 225° Southwest  Level Estimated
10:37PM 26.3001 116.4154 225° Southwest  Level Estimated
10:38PM 26.2472 116.3567 225° Southwest  Level Estimated
10:39PM 26.1943 116.2981 225° Southwest  Level Estimated
10:40PM 26.1413 116.2395 225° Southwest  Level Estimated
10:41PM 26.0884 116.1810 225° Southwest  Level Estimated
10:42PM 26.0354 116.1225 225° Southwest  Level Estimated
10:43PM 25.9824 116.0641 225° Southwest  Level Estimated
10:44PM 25.9294 116.0057 225° Southwest  Level Estimated
10:45PM 25.8763 115.9474 225° Southwest  Level Estimated
10:46PM 25.8232 115.8891 225° Southwest  Level Estimated
10:47PM 25.7701 115.8309 225° Southwest  Level Estimated
10:48PM 25.7170 115.7727 225° Southwest  Level Estimated
10:49PM 25.6639 115.7146 225° Southwest  Level Estimated
10:50PM 25.6107 115.6566 225° Southwest  Level Estimated
10:51PM 25.5575 115.5986 225° Southwest  Level Estimated
10:52PM 25.5043 115.5406 225° Southwest  Level Estimated
10:53PM 25.4511 115.4827 224° Southwest  Level Estimated
10:54PM 25.3978 115.4249 224° Southwest  Level Estimated
10:55PM 25.3445 115.3671 224° Southwest  Level Estimated
10:56PM 25.2912 115.3093 224° Southwest  Level Estimated
10:57PM 25.2379 115.2516 224° Southwest  Level Estimated
10:58PM 25.1845 115.1940 224° Southwest  Level Estimated
10:59PM 25.1312 115.1364 224° Southwest  Level Estimated
11:00PM 25.0778 115.0788 224° Southwest  Level Estimated
11:01PM 25.0244 115.0213 224° Southwest  Level Estimated
11:02PM 24.9709 114.9639 224° Southwest  Level Estimated
11:03PM 24.9175 114.9065 224° Southwest  Level Estimated
11:04PM 24.8640 114.8491 224° Southwest  Level Estimated
11:05PM 24.8105 114.7918 224° Southwest  Level Estimated
11:06PM 24.7570 114.7346 224° Southwest  Level Estimated
11:07PM 24.7034 114.6774 224° Southwest  Level Estimated
11:08PM 24.6499 114.6202 224° Southwest  Level Estimated
11:09PM 24.5963 114.5631 224° Southwest  Level Estimated
11:10PM 24.5427 114.5061 224° Southwest  Level Estimated
11:11PM 24.4890 114.4491 224° Southwest  Level Estimated
11:12PM 24.4354 114.3921 224° Southwest  Level Estimated
11:13PM 24.3817 114.3352 224° Southwest  Level Estimated
11:14PM 24.3280 114.2784 224° Southwest  Level Estimated
11:15PM 24.2743 114.2215 224° Southwest  Level Estimated
11:16PM 24.2205 114.1648 224° Southwest  Level Estimated
11:17PM 24.1668 114.1081 224° Southwest  Level Estimated
11:18PM 24.1130 114.0514 224° Southwest  Level Estimated
11:19PM 24.0592 113.9948 224° Southwest  Level Estimated
11:20PM 24.0054 113.9382 224° Southwest  Level Estimated
11:21PM 23.9515 113.8817 224° Southwest  Level Estimated
11:22PM 23.8976 113.8252 224° Southwest  Level Estimated
11:23PM 23.8438 113.7688 224° Southwest  Level Estimated
11:24PM 23.7899 113.7124 224° Southwest  Level Estimated
11:25PM 23.7359 113.6561 224° Southwest  Level Estimated
11:26PM 23.6820 113.5998 224° Southwest  Level Estimated
11:27PM 23.6280 113.5435 224° Southwest  Level Estimated
11:28PM 23.5740 113.4873 224° Southwest  Level Estimated
11:29PM 23.5200 113.4312 224° Southwest  Level Estimated
11:30PM 23.4660 113.3751 224° Southwest  Level Estimated
11:31PM 23.4119 113.3190 224° Southwest  Level Estimated
11:32PM 23.3924 113.2988 224° Southwest  Level Estimated
11:33PM 23.3924 113.2988 North  Level Estimated
11:34PM 23.3924 113.2988 North  Level Estimated
11:35PM 23.3924 113.2988 North  Level Estimated
11:36PM 23.3924 113.2988 North  Level Estimated
11:37PM 23.3924 113.2988 North  Level Estimated
11:38PM 23.3924 113.2988 North  Level Estimated
11:39PM 23.3924 113.2988 North  Level Estimated
11:40PM 23.3924 113.2988 North  Level Estimated
11:41PM 23.3924 113.2988 North  Level Estimated
11:42PM 23.3924 113.2988 North  Level Estimated
11:43PM 23.3924 113.2988 North  Level Estimated
11:44PM 23.3924 113.2988 North  Level Estimated
11:45PM 23.3924 113.2988 North  Level Estimated
11:46PM 23.3924 113.2988 North  Level Estimated
11:47PM 23.3924 113.2988 North  Level Estimated